createdAt,value
2022-12-09T00:00:22.135Z,100698.00
2022-12-09T00:02:50.462Z,100699.75
2022-12-09T00:05:20.131Z,100698.22
2022-12-09T00:07:48.260Z,100697.59
2022-12-09T00:10:16.420Z,100699.09
2022-12-09T00:12:44.607Z,100696.97
2022-12-09T00:15:12.743Z,100704.00
2022-12-09T00:17:40.633Z,100699.13
2022-12-09T00:20:10.094Z,100684.13
2022-12-09T00:22:39.849Z,100692.38
2022-12-09T00:25:08.897Z,100694.34
2022-12-09T00:27:37.262Z,100687.88
2022-12-09T00:30:06.403Z,100696.66
2022-12-09T00:32:34.691Z,100693.00
2022-12-09T00:35:04.482Z,100701.44
2022-12-09T00:37:32.841Z,100694.78
2022-12-09T00:40:02.320Z,100703.44
2022-12-09T00:42:30.209Z,100702.03
2022-12-09T00:44:58.242Z,100703.31
2022-12-09T00:47:26.521Z,100700.59
2022-12-09T00:49:54.659Z,100699.19
2022-12-09T00:52:22.590Z,100699.84
2022-12-09T00:54:50.788Z,100703.91
2022-12-09T00:57:20.283Z,100698.13
2022-12-09T00:59:48.336Z,100697.19
2022-12-09T01:02:16.324Z,100694.59
2022-12-09T01:04:44.678Z,100703.56
2022-12-09T01:07:12.977Z,100704.56
2022-12-09T01:09:40.899Z,100703.28
2022-12-09T01:12:08.919Z,100706.47
2022-12-09T01:14:38.470Z,100709.88
2022-12-09T01:17:06.547Z,100713.53
2022-12-09T01:19:35.437Z,100705.81
2022-12-09T01:22:03.484Z,100724.31
2022-12-09T01:24:31.396Z,100724.63
2022-12-09T01:26:59.702Z,100722.19
2022-12-09T01:29:27.677Z,100722.06
2022-12-09T01:31:57.396Z,100724.31
2022-12-09T01:34:25.560Z,100721.19
2022-12-09T01:36:53.919Z,100735.31
2022-12-09T01:39:21.860Z,100729.63
2022-12-09T01:41:51.409Z,100720.13
2022-12-09T01:44:22.156Z,100718.19
2022-12-09T01:46:50.942Z,100728.63
2022-12-09T01:49:25.271Z,100723.44
2022-12-09T01:52:02.212Z,100717.19
2022-12-09T01:54:30.775Z,100727.84
2022-12-09T01:56:59.160Z,100726.06
2022-12-09T01:59:27.668Z,100726.84
2022-12-09T02:01:59.234Z,100719.59
2022-12-09T02:04:30.995Z,100716.28
2022-12-09T02:07:02.090Z,100719.34
2022-12-09T02:09:30.577Z,100712.06
2022-12-09T02:12:07.332Z,100716.56
2022-12-09T02:14:40.860Z,100706.75
2022-12-09T02:17:22.787Z,100713.28
2022-12-09T02:20:02.649Z,100702.72
2022-12-09T02:22:34.633Z,100702.06
2022-12-09T02:25:12.016Z,100707.81
2022-12-09T02:27:46.685Z,100710.28
2022-12-09T02:30:17.106Z,100700.00
2022-12-09T02:32:59.482Z,100712.59
2022-12-09T02:35:33.714Z,100704.63
2022-12-09T02:38:06.151Z,100704.66
2022-12-09T02:40:37.406Z,100705.94
2022-12-09T02:43:07.900Z,100709.53
2022-12-09T02:45:37.092Z,100696.16
2022-12-09T02:48:06.292Z,100695.81
2022-12-09T02:50:38.122Z,100692.50
2022-12-09T02:53:09.893Z,100697.31
2022-12-09T02:55:38.516Z,100698.34
2022-12-09T02:58:06.533Z,100702.19
2022-12-09T03:00:34.971Z,100701.06
2022-12-09T03:03:04.752Z,100700.97
2022-12-09T03:05:41.360Z,100692.59
2022-12-09T03:08:17.591Z,100690.06
2022-12-09T03:10:54.206Z,100691.78
2022-12-09T03:13:32.754Z,100689.53
2022-12-09T03:16:06.005Z,100683.97
2022-12-09T03:18:35.084Z,100676.03
2022-12-09T03:21:05.536Z,100678.16
2022-12-09T03:23:34.953Z,100677.50
2022-12-09T03:26:03.649Z,100676.78
2022-12-09T03:28:33.625Z,100675.75
2022-12-09T03:31:04.418Z,100672.19
2022-12-09T03:33:32.863Z,100671.44
2022-12-09T03:36:03.488Z,100667.53
2022-12-09T03:38:37.262Z,100667.53
2022-12-09T03:41:09.251Z,100669.66
2022-12-09T03:43:40.002Z,100657.41
2022-12-09T03:46:08.246Z,100658.88
2022-12-09T03:48:36.434Z,100661.41
2022-12-09T03:51:08.677Z,100657.88
2022-12-09T03:53:43.037Z,100666.13
2022-12-09T03:56:15.901Z,100664.19
2022-12-09T03:58:45.211Z,100664.44
2022-12-09T04:01:13.760Z,100665.63
2022-12-09T04:03:45.457Z,100658.75
2022-12-09T04:06:14.191Z,100659.69
2022-12-09T04:08:44.931Z,100661.25
2022-12-09T04:11:13.103Z,100658.44
2022-12-09T04:13:41.264Z,100657.69
2022-12-09T04:16:10.134Z,100657.25
2022-12-09T04:18:38.652Z,100655.91
2022-12-09T04:21:08.586Z,100659.31
2022-12-09T04:23:42.532Z,100658.41
2022-12-09T04:26:15.024Z,100670.31
2022-12-09T04:28:43.284Z,100667.94
2022-12-09T04:31:12.843Z,100656.63
2022-12-09T04:33:41.775Z,100662.00
2022-12-09T04:36:13.072Z,100646.25
2022-12-09T04:38:41.566Z,100657.00
2022-12-09T04:41:09.963Z,100664.88
2022-12-09T04:43:39.692Z,100659.16
2022-12-09T04:46:09.112Z,100676.00
2022-12-09T04:48:38.005Z,100664.81
2022-12-09T04:51:06.487Z,100664.66
2022-12-09T04:53:34.419Z,100668.34
2022-12-09T04:56:02.944Z,100664.13
2022-12-09T04:58:31.201Z,100662.28
2022-12-09T05:01:01.147Z,100652.72
2022-12-09T05:03:29.494Z,100661.75
2022-12-09T05:05:57.898Z,100658.09
2022-12-09T05:08:31.224Z,100657.03
2022-12-09T05:11:00.264Z,100658.69
2022-12-09T05:13:28.603Z,100663.72
2022-12-09T05:16:02.498Z,100650.38
2022-12-09T05:18:30.979Z,100651.03
2022-12-09T05:20:59.558Z,100658.34
2022-12-09T05:23:27.711Z,100648.63
2022-12-09T05:25:56.616Z,100643.78
2022-12-09T05:28:24.766Z,100657.09
2022-12-09T05:30:52.815Z,100657.91
2022-12-09T05:33:22.942Z,100660.72
2022-12-09T05:35:53.466Z,100654.59
2022-12-09T05:38:21.885Z,100644.03
2022-12-09T05:40:49.891Z,100649.38
2022-12-09T05:43:17.840Z,100644.97
2022-12-09T05:45:46.096Z,100644.16
2022-12-09T05:48:14.093Z,100647.75
2022-12-09T05:50:43.916Z,100646.91
2022-12-09T05:53:12.268Z,100653.03
2022-12-09T05:55:41.385Z,100652.94
2022-12-09T05:58:10.322Z,100653.69
2022-12-09T06:00:38.279Z,100642.38
2022-12-09T06:03:06.373Z,100641.50
2022-12-09T06:05:35.313Z,100647.19
2022-12-09T06:08:07.044Z,100650.75
2022-12-09T06:10:36.434Z,100651.63
2022-12-09T06:13:04.873Z,100662.00
2022-12-09T06:15:34.476Z,100653.41
2022-12-09T06:18:02.997Z,100647.19
2022-12-09T06:20:31.358Z,100648.41
2022-12-09T06:22:59.506Z,100646.03
2022-12-09T06:25:29.097Z,100644.72
2022-12-09T06:27:57.373Z,100646.66
2022-12-09T06:30:25.412Z,100645.72
2022-12-09T06:32:53.867Z,100637.75
2022-12-09T06:35:22.272Z,100653.16
2022-12-09T06:37:52.854Z,100643.91
2022-12-09T06:40:22.701Z,100641.34
2022-12-09T06:42:53.129Z,100643.53
2022-12-09T06:45:21.870Z,100638.81
2022-12-09T06:47:50.134Z,100641.19
2022-12-09T06:50:18.425Z,100639.53
2022-12-09T06:52:46.670Z,100639.31
2022-12-09T06:55:15.411Z,100642.78
2022-12-09T06:57:43.846Z,100632.19
2022-12-09T07:00:15.294Z,100633.97
2022-12-09T07:02:43.696Z,100642.47
2022-12-09T07:05:12.860Z,100642.66
2022-12-09T07:07:41.602Z,100638.69
2022-12-09T07:10:11.332Z,100642.81
2022-12-09T07:12:39.572Z,100648.41
2022-12-09T07:15:09.021Z,100648.56
2022-12-09T07:17:39.156Z,100652.31
2022-12-09T07:20:08.611Z,100649.41
2022-12-09T07:22:37.249Z,100651.84
2022-12-09T07:25:06.309Z,100659.34
2022-12-09T07:27:34.997Z,100655.56
2022-12-09T07:30:03.335Z,100657.63
2022-12-09T07:32:31.608Z,100650.03
2022-12-09T07:35:01.409Z,100656.72
2022-12-09T07:37:29.710Z,100648.16
2022-12-09T07:39:57.775Z,100653.06
2022-12-09T07:42:25.775Z,100664.41
2022-12-09T07:44:54.073Z,100663.25
2022-12-09T07:47:22.287Z,100670.88
2022-12-09T07:49:50.736Z,100664.31
2022-12-09T07:52:20.446Z,100669.19
2022-12-09T07:54:48.431Z,100678.16
2022-12-09T07:57:16.634Z,100682.19
2022-12-09T07:59:44.685Z,100681.63
2022-12-09T08:02:13.018Z,100683.69
2022-12-09T08:04:41.440Z,100678.53
2022-12-09T08:07:10.048Z,100683.06
2022-12-09T08:09:40.499Z,100678.59
2022-12-09T08:12:08.703Z,100676.19
2022-12-09T08:14:37.348Z,100684.78
2022-12-09T08:17:05.468Z,100681.72
2022-12-09T08:19:34.055Z,100689.75
2022-12-09T08:22:02.338Z,100682.28
2022-12-09T08:24:30.767Z,100681.94
2022-12-09T08:27:00.297Z,100683.59
2022-12-09T08:29:28.561Z,100686.94
2022-12-09T08:31:56.837Z,100681.94
2022-12-09T08:34:24.986Z,100686.13
2022-12-09T08:36:58.713Z,100683.19
2022-12-09T08:39:29.696Z,100689.28
2022-12-09T08:41:59.460Z,100678.06
2022-12-09T08:44:27.858Z,100678.97
2022-12-09T08:46:56.103Z,100686.22
2022-12-09T08:49:25.099Z,100681.63
2022-12-09T08:51:54.541Z,100667.69
2022-12-09T08:54:23.181Z,100684.38
2022-12-09T08:56:53.669Z,100676.94
2022-12-09T08:59:23.178Z,100684.13
2022-12-09T09:01:51.781Z,100685.03
2022-12-09T09:04:21.648Z,100688.44
2022-12-09T09:06:51.610Z,100688.38
2022-12-09T09:09:21.342Z,100691.03
2022-12-09T09:11:49.698Z,100682.84
2022-12-09T09:14:18.295Z,100690.66
2022-12-09T09:16:48.172Z,100694.03
2022-12-09T09:19:18.736Z,100693.44
2022-12-09T09:21:47.186Z,100695.25
2022-12-09T09:24:18.237Z,100693.88
2022-12-09T09:26:46.991Z,100691.00
2022-12-09T09:29:16.013Z,100692.53
2022-12-09T09:31:44.880Z,100690.31
2022-12-09T09:34:14.478Z,100687.63
2022-12-09T09:36:42.922Z,100689.97
2022-12-09T09:39:11.183Z,100688.81
2022-12-09T09:41:46.620Z,100695.22
2022-12-09T09:44:20.661Z,100690.31
2022-12-09T09:46:50.827Z,100694.09
2022-12-09T09:49:27.987Z,100694.47
2022-12-09T09:51:56.367Z,100683.72
2022-12-09T09:54:24.398Z,100691.19
2022-12-09T09:56:57.314Z,100684.38
2022-12-09T09:59:34.292Z,100684.91
2022-12-09T10:02:14.831Z,100687.00
2022-12-09T10:04:52.719Z,100679.72
2022-12-09T10:07:25.004Z,100681.09
2022-12-09T10:09:59.848Z,100678.44
2022-12-09T10:12:35.722Z,100676.91
2022-12-09T10:15:11.498Z,100678.84
2022-12-09T10:17:46.168Z,100681.59
2022-12-09T10:20:18.915Z,100677.16
2022-12-09T10:22:51.439Z,100670.44
2022-12-09T10:25:24.004Z,100680.78
2022-12-09T10:27:56.110Z,100674.97
2022-12-09T10:30:25.598Z,100667.78
2022-12-09T10:32:55.535Z,100670.06
2022-12-09T10:35:27.685Z,100665.78
2022-12-09T10:37:57.711Z,100673.16
2022-12-09T10:40:29.658Z,100661.72
2022-12-09T10:43:16.835Z,100658.81
2022-12-09T10:46:16.683Z,100662.50
2022-12-09T10:48:37.593Z,100660.38
2022-12-09T10:51:12.483Z,100658.66
2022-12-09T10:53:46.723Z,100650.25
2022-12-09T10:56:20.158Z,100656.41
2022-12-09T10:58:48.733Z,100653.25
2022-12-09T11:01:17.497Z,100655.53
2022-12-09T11:03:50.794Z,100649.94
2022-12-09T11:06:28.553Z,100650.25
2022-12-09T11:08:59.031Z,100645.84
2022-12-09T11:11:41.422Z,100640.63
2022-12-09T11:14:23.103Z,100649.09
2022-12-09T11:16:53.092Z,100643.97
2022-12-09T11:19:31.050Z,100631.22
2022-12-09T11:22:29.293Z,100630.28
2022-12-09T11:25:22.801Z,100630.69
2022-12-09T11:27:54.000Z,100623.22
2022-12-09T11:30:25.403Z,100626.47
2022-12-09T11:33:08.126Z,100629.16
2022-12-09T11:35:53.184Z,100625.22
2022-12-09T11:38:32.708Z,100626.34
2022-12-09T11:41:04.597Z,100614.38
2022-12-09T11:43:40.835Z,100620.88
2022-12-09T11:46:21.518Z,100628.06
2022-12-09T11:48:53.477Z,100613.25
2022-12-09T11:51:27.799Z,100615.00
2022-12-09T11:54:03.373Z,100613.00
2022-12-09T11:56:31.910Z,100607.41
2022-12-09T11:59:02.889Z,100610.34
2022-12-09T12:01:43.637Z,100606.66
2022-12-09T12:04:13.810Z,100605.63
2022-12-09T12:06:45.816Z,100609.09
2022-12-09T12:09:20.500Z,100605.28
2022-12-09T12:11:53.786Z,100600.19
2022-12-09T12:14:26.052Z,100591.94
2022-12-09T12:16:59.762Z,100589.56
2022-12-09T12:19:32.217Z,100592.53
2022-12-09T12:22:33.882Z,100585.47
2022-12-09T12:25:17.729Z,100580.88
2022-12-09T12:27:56.807Z,100580.66
2022-12-09T12:30:28.075Z,100580.38
2022-12-09T12:35:58.874Z,100577.78
2022-12-09T12:38:37.733Z,100577.78
2022-12-09T12:41:11.823Z,100579.00
2022-12-09T12:44:12.063Z,100574.06
2022-12-09T12:46:49.126Z,100571.41
2022-12-09T12:49:28.984Z,100571.84
2022-12-09T12:52:01.553Z,100576.75
2022-12-09T12:54:37.576Z,100574.16
2022-12-09T12:57:12.477Z,100575.53
2022-12-09T12:59:46.660Z,100565.13
2022-12-09T13:02:24.607Z,100561.56
2022-12-09T13:04:56.703Z,100562.88
2022-12-09T13:07:30.492Z,100557.44
2022-12-09T13:10:03.359Z,100553.94
2022-12-09T13:12:51.879Z,100555.28
2022-12-09T13:15:22.330Z,100557.25
2022-12-09T13:17:50.929Z,100563.19
2022-12-09T13:20:22.493Z,100561.50
2022-12-09T13:22:55.079Z,100564.50
2022-12-09T13:25:27.249Z,100563.56
2022-12-09T13:28:01.295Z,100561.06
2022-12-09T13:30:39.980Z,100558.97
2022-12-09T13:33:23.430Z,100563.19
2022-12-09T13:35:56.468Z,100564.22
2022-12-09T13:38:36.881Z,100563.56
2022-12-09T13:41:56.376Z,100565.19
2022-12-09T13:44:32.458Z,100564.88
2022-12-09T13:47:26.597Z,100563.91
2022-12-09T13:49:58.152Z,100565.06
2022-12-09T13:52:45.064Z,100562.03
2022-12-09T13:55:30.042Z,100555.44
2022-12-09T13:58:05.930Z,100560.25
2022-12-09T14:00:35.542Z,100555.94
2022-12-09T14:03:24.924Z,100561.69
2022-12-09T14:05:54.037Z,100556.41
2022-12-09T14:08:24.402Z,100554.06
2022-12-09T14:10:53.159Z,100550.31
2022-12-09T14:13:27.768Z,100555.81
2022-12-09T14:16:35.059Z,100557.06
2022-12-09T14:19:49.982Z,100557.84
2022-12-09T14:22:38.994Z,100559.91
2022-12-09T14:25:50.944Z,100570.72
2022-12-09T14:28:35.880Z,100567.38
2022-12-09T14:31:08.709Z,100570.88
2022-12-09T14:33:37.691Z,100573.09
2022-12-09T14:36:09.764Z,100570.72
2022-12-09T14:39:07.791Z,100569.78
2022-12-09T14:41:36.287Z,100580.50
2022-12-09T14:44:13.713Z,100573.78
2022-12-09T14:46:42.969Z,100580.22
2022-12-09T14:49:14.954Z,100570.25
2022-12-09T14:51:47.981Z,100568.69
2022-12-09T14:54:18.596Z,100578.63
2022-12-09T14:56:48.303Z,100568.84
2022-12-09T14:59:19.695Z,100581.63
2022-12-09T15:01:53.181Z,100579.41
2022-12-09T15:04:26.843Z,100586.00
2022-12-09T15:07:14.841Z,100583.25
2022-12-09T15:09:54.005Z,100591.09
2022-12-09T15:12:24.686Z,100589.41
2022-12-09T15:14:58.002Z,100593.75
2022-12-09T15:17:28.266Z,100590.50
2022-12-09T15:20:01.062Z,100594.34
2022-12-09T15:22:31.956Z,100596.22
2022-12-09T15:25:00.053Z,100595.94
2022-12-09T15:27:28.473Z,100597.47
2022-12-09T15:29:56.458Z,100601.06
2022-12-09T15:32:26.852Z,100606.31
2022-12-09T15:34:55.495Z,100600.69
2022-12-09T15:37:27.191Z,100602.94
2022-12-09T15:40:01.308Z,100604.16
2022-12-09T15:42:30.908Z,100609.53
2022-12-09T15:45:04.840Z,100610.13
2022-12-09T15:47:38.891Z,100610.63
2022-12-09T15:50:15.344Z,100612.41
2022-12-09T15:52:47.261Z,100613.41
2022-12-09T15:55:18.867Z,100612.69
2022-12-09T15:57:47.917Z,100611.69
2022-12-09T16:00:16.436Z,100621.84
2022-12-09T16:02:46.424Z,100622.84
2022-12-09T16:05:14.409Z,100620.84
2022-12-09T16:07:53.513Z,100627.97
2022-12-09T16:10:26.713Z,100619.69
2022-12-09T16:13:11.803Z,100616.88
2022-12-09T16:15:45.925Z,100621.13
2022-12-09T16:18:17.736Z,100615.59
2022-12-09T16:20:46.380Z,100618.47
2022-12-09T16:23:21.275Z,100626.84
2022-12-09T16:25:51.296Z,100623.94
2022-12-09T16:28:22.508Z,100624.50
2022-12-09T16:30:51.614Z,100627.81
2022-12-09T16:33:20.796Z,100623.75
2022-12-09T16:35:58.937Z,100628.69
2022-12-09T16:38:26.879Z,100624.81
2022-12-09T16:41:01.629Z,100634.31
2022-12-09T16:43:30.570Z,100632.44
2022-12-09T16:45:59.644Z,100634.28
2022-12-09T16:48:28.869Z,100638.50
2022-12-09T16:50:58.793Z,100634.41
2022-12-09T16:53:29.085Z,100635.09
2022-12-09T16:56:00.651Z,100641.06
2022-12-09T16:58:29.444Z,100639.53
2022-12-09T17:00:57.659Z,100650.44
2022-12-09T17:03:33.415Z,100642.34
2022-12-09T17:06:01.429Z,100653.72
2022-12-09T17:08:29.380Z,100658.69
2022-12-09T17:10:57.341Z,100658.03
2022-12-09T17:13:26.597Z,100653.28
2022-12-09T17:15:58.437Z,100660.22
2022-12-09T17:18:26.797Z,100659.59
2022-12-09T17:21:01.074Z,100660.88
2022-12-09T17:23:29.045Z,100658.88
2022-12-09T17:25:58.045Z,100670.31
2022-12-09T17:28:30.114Z,100670.09
2022-12-09T17:30:58.263Z,100666.16
2022-12-09T17:33:26.971Z,100665.16
2022-12-09T17:35:55.029Z,100669.47
2022-12-09T17:38:23.340Z,100668.34
2022-12-09T17:40:51.420Z,100675.41
2022-12-09T17:43:19.312Z,100678.09
2022-12-09T17:45:48.674Z,100676.97
2022-12-09T17:48:16.597Z,100685.59
2022-12-09T17:50:44.545Z,100679.19
2022-12-09T17:53:12.540Z,100684.47
2022-12-09T17:55:40.533Z,100685.25
2022-12-09T17:58:08.434Z,100694.97
2022-12-09T18:00:36.339Z,100692.19
2022-12-09T18:03:05.707Z,100694.03
2022-12-09T18:05:33.676Z,100694.75
2022-12-09T18:08:01.595Z,100688.50
2022-12-09T18:10:29.565Z,100696.63
2022-12-09T18:12:57.451Z,100698.44
2022-12-09T18:15:27.284Z,100688.00
2022-12-09T18:17:55.245Z,100699.66
2022-12-09T18:20:24.634Z,100702.31
2022-12-09T18:22:52.728Z,100702.59
2022-12-09T18:25:20.660Z,100696.53
2022-12-09T18:27:48.621Z,100709.28
2022-12-09T18:30:16.929Z,100706.66
2022-12-09T18:32:44.878Z,100708.63
2022-12-09T18:35:12.872Z,100712.47
2022-12-09T18:37:42.197Z,100708.88
2022-12-09T18:40:11.409Z,100723.84
2022-12-09T18:42:39.284Z,100711.53
2022-12-09T18:45:08.071Z,100717.00
2022-12-09T18:47:36.372Z,100711.53
2022-12-09T18:50:04.605Z,100716.81
2022-12-09T18:52:32.654Z,100719.78
2022-12-09T18:55:01.993Z,100714.47
2022-12-09T18:57:31.017Z,100716.19
2022-12-09T18:59:59.047Z,100710.88
2022-12-09T19:02:27.054Z,100713.28
2022-12-09T19:04:55.208Z,100712.47
2022-12-09T19:07:26.497Z,100723.31
2022-12-09T19:09:57.205Z,100720.06
2022-12-09T19:15:14.695Z,100732.22
2022-12-09T19:17:43.182Z,100740.09
2022-12-09T19:20:12.110Z,100741.94
2022-12-09T19:22:40.198Z,100743.06
2022-12-09T19:25:08.587Z,100750.66
2022-12-09T19:27:37.877Z,100746.81
2022-12-09T19:30:06.854Z,100752.72
2022-12-09T19:32:53.057Z,100750.59
2022-12-09T19:35:21.779Z,100758.25
2022-12-09T19:37:49.677Z,100769.56
2022-12-09T19:40:18.721Z,100765.22
2022-12-09T19:42:47.997Z,100768.44
2022-12-09T19:45:16.022Z,100773.97
2022-12-09T19:47:43.902Z,100768.44
2022-12-09T19:50:11.788Z,100773.00
2022-12-09T19:52:39.698Z,100774.78
2022-12-09T19:55:08.841Z,100772.09
2022-12-09T19:57:36.782Z,100778.75
2022-12-09T20:00:07.306Z,100778.34
2022-12-09T20:02:36.364Z,100782.06
2022-12-09T20:05:05.411Z,100781.53
2022-12-09T20:07:33.288Z,100778.66
2022-12-09T20:10:01.165Z,100781.72
2022-12-09T20:12:29.087Z,100781.91
2022-12-09T20:14:57.001Z,100776.75
2022-12-09T20:17:26.328Z,100789.22
2022-12-09T20:19:54.221Z,100785.19
2022-12-09T20:22:22.104Z,100789.50
2022-12-09T20:24:49.996Z,100795.94
2022-12-09T20:27:19.917Z,100789.72
2022-12-09T20:29:48.062Z,100790.94
2022-12-09T20:32:15.989Z,100789.59
2022-12-09T20:34:45.303Z,100797.06
2022-12-09T20:37:13.367Z,100792.28
2022-12-09T20:39:41.310Z,100800.94
2022-12-09T20:42:09.209Z,100804.94
2022-12-09T20:44:37.117Z,100805.56
2022-12-09T20:47:05.149Z,100809.34
2022-12-09T20:49:33.048Z,100806.69
2022-12-09T20:52:02.324Z,100812.66
2022-12-09T20:54:30.265Z,100803.03
2022-12-09T20:56:58.157Z,100803.47
2022-12-09T20:59:26.102Z,100811.31
2022-12-09T21:01:55.855Z,100808.78
2022-12-09T21:04:23.903Z,100813.00
2022-12-09T21:06:51.845Z,100822.19
2022-12-09T21:09:22.947Z,100820.28
2022-12-09T21:11:51.406Z,100819.31
2022-12-09T21:14:19.414Z,100812.66
2022-12-09T21:16:50.301Z,100815.13
2022-12-09T21:19:25.253Z,100816.78
2022-12-09T21:21:53.634Z,100809.56
2022-12-09T21:24:24.702Z,100809.38
2022-12-09T21:26:55.319Z,100822.44
2022-12-09T21:29:29.819Z,100821.19
2022-12-09T21:31:59.488Z,100816.88
2022-12-09T21:34:27.430Z,100804.88
2022-12-09T21:36:55.673Z,100809.44
2022-12-09T21:39:25.061Z,100806.94
2022-12-09T21:41:53.495Z,100817.88
2022-12-09T21:44:22.417Z,100809.47
2022-12-09T21:46:50.343Z,100808.88
2022-12-09T21:49:18.245Z,100814.13
2022-12-09T21:51:46.177Z,100814.75
2022-12-09T21:54:14.180Z,100819.13
2022-12-09T21:56:43.481Z,100815.41
2022-12-09T21:59:12.202Z,100813.75
2022-12-09T22:01:42.690Z,100823.66
2022-12-09T22:04:12.703Z,100813.53
2022-12-09T22:06:40.778Z,100821.88
2022-12-09T22:09:09.593Z,100824.56
2022-12-09T22:11:39.321Z,100836.63
2022-12-09T22:14:10.540Z,100825.06
2022-12-09T22:16:40.981Z,100826.72
2022-12-09T22:19:10.129Z,100838.16
2022-12-09T22:21:38.293Z,100837.91
2022-12-09T22:24:08.052Z,100838.25
2022-12-09T22:26:36.107Z,100846.16
2022-12-09T22:29:05.873Z,100835.19
2022-12-09T22:31:36.486Z,100834.25
2022-12-09T22:34:05.910Z,100839.59
2022-12-09T22:36:34.713Z,100839.63
2022-12-09T22:39:02.609Z,100832.09
2022-12-09T22:41:31.141Z,100838.41
2022-12-09T22:43:59.285Z,100841.97
2022-12-09T22:46:28.857Z,100840.69
2022-12-09T22:48:59.041Z,100836.91
2022-12-09T22:51:29.020Z,100838.50
2022-12-09T22:53:57.790Z,100841.69
2022-12-09T22:56:26.716Z,100839.75
2022-12-09T22:58:55.083Z,100836.03
2022-12-09T23:01:24.410Z,100831.59
2022-12-09T23:03:52.530Z,100836.38
2022-12-09T23:06:21.805Z,100834.97
2022-12-09T23:08:50.196Z,100838.16
2022-12-09T23:11:19.684Z,100828.84
2022-12-09T23:13:47.573Z,100832.13
2022-12-09T23:16:17.591Z,100824.38
2022-12-09T23:18:45.763Z,100833.03
2022-12-09T23:21:15.735Z,100829.38
2022-12-09T23:23:45.377Z,100827.84
2022-12-09T23:26:14.607Z,100826.38
2022-12-09T23:28:43.928Z,100823.94
2022-12-09T23:31:13.382Z,100819.00
2022-12-09T23:33:43.020Z,100818.81
2022-12-09T23:36:13.275Z,100818.28
2022-12-09T23:38:42.056Z,100826.66
2022-12-09T23:41:12.543Z,100826.53
2022-12-09T23:43:40.472Z,100827.03
2022-12-09T23:46:15.166Z,100821.19
2022-12-09T23:48:43.766Z,100821.78
2022-12-09T23:51:12.624Z,100821.25
2022-12-09T23:53:41.367Z,100825.47
2022-12-09T23:56:13.331Z,100832.66
2022-12-09T23:58:41.503Z,100828.13
